createdAt,value
2023-04-16T00:01:51.728Z,8.90
2023-04-16T00:04:19.642Z,8.90
2023-04-16T00:06:47.256Z,8.90
2023-04-16T00:09:14.823Z,8.90
2023-04-16T00:11:42.326Z,9.00
2023-04-16T00:14:09.834Z,8.90
2023-04-16T00:16:38.466Z,8.90
2023-04-16T00:19:06.187Z,8.90
2023-04-16T00:21:33.802Z,8.90
2023-04-16T00:24:01.355Z,8.90
2023-04-16T00:26:28.864Z,8.90
2023-04-16T00:28:56.543Z,8.90
2023-04-16T00:31:31.951Z,8.90
2023-04-16T00:34:00.387Z,8.90
2023-04-16T00:36:28.691Z,8.90
2023-04-16T00:38:57.176Z,8.90
2023-04-16T00:41:24.704Z,8.90
2023-04-16T00:43:52.370Z,9.00
2023-04-16T00:46:22.082Z,9.00
2023-04-16T00:48:51.593Z,9.00
2023-04-16T00:51:20.574Z,9.00
2023-04-16T00:53:48.419Z,9.10
2023-04-16T00:56:17.615Z,9.10
2023-04-16T00:58:45.557Z,9.10
2023-04-16T01:01:14.567Z,9.10
2023-04-16T01:03:47.424Z,9.10
2023-04-16T01:06:16.709Z,9.20
2023-04-16T01:08:44.871Z,9.10
2023-04-16T01:11:14.013Z,9.10
2023-04-16T01:13:42.102Z,9.10
2023-04-16T01:16:11.290Z,9.10
2023-04-16T01:18:39.129Z,9.10
2023-04-16T01:21:07.060Z,9.10
2023-04-16T01:23:34.561Z,9.10
2023-04-16T01:26:03.265Z,9.10
2023-04-16T01:28:31.011Z,9.20
2023-04-16T01:30:58.613Z,9.10
2023-04-16T01:33:49.197Z,9.10
2023-04-16T01:36:16.784Z,9.10
2023-04-16T01:38:46.342Z,9.10
2023-04-16T01:41:13.917Z,9.10
2023-04-16T01:43:42.565Z,9.00
2023-04-16T01:46:18.088Z,9.00
2023-04-16T01:48:45.824Z,9.00
2023-04-16T01:51:13.516Z,9.00
2023-04-16T01:53:41.141Z,9.10
2023-04-16T01:56:08.796Z,9.10
2023-04-16T01:58:36.600Z,9.10
2023-04-16T02:01:05.846Z,9.00
2023-04-16T02:03:34.068Z,9.10
2023-04-16T02:06:01.793Z,9.10
2023-04-16T02:08:29.738Z,9.00
2023-04-16T02:10:57.953Z,9.00
2023-04-16T02:13:26.413Z,9.00
2023-04-16T02:15:54.263Z,9.00
2023-04-16T02:18:32.608Z,9.10
2023-04-16T02:21:00.557Z,9.00
2023-04-16T02:23:28.409Z,9.00
2023-04-16T02:25:58.538Z,9.10
2023-04-16T02:28:26.471Z,9.10
2023-04-16T02:30:54.399Z,9.10
2023-04-16T02:33:22.657Z,9.10
2023-04-16T02:35:57.462Z,9.10
2023-04-16T02:40:53.130Z,9.20
2023-04-16T02:43:20.685Z,9.20
2023-04-16T02:45:48.325Z,9.20
2023-04-16T02:48:16.025Z,9.20
2023-04-16T02:50:43.664Z,9.20
2023-04-16T02:53:11.599Z,9.20
2023-04-16T02:55:39.196Z,9.10
2023-04-16T02:58:06.851Z,9.10
2023-04-16T03:00:34.406Z,9.10
2023-04-16T03:03:02.171Z,9.10
2023-04-16T03:05:30.025Z,9.10
2023-04-16T03:07:57.574Z,9.10
2023-04-16T03:10:25.081Z,9.10
2023-04-16T03:12:52.604Z,9.10
2023-04-16T03:15:20.345Z,9.00
2023-04-16T03:17:47.915Z,9.00
2023-04-16T03:20:17.070Z,9.00
2023-04-16T03:22:44.747Z,9.00
2023-04-16T03:25:13.965Z,9.00
2023-04-16T03:27:41.722Z,8.90
2023-04-16T03:30:14.027Z,9.00
2023-04-16T03:32:42.018Z,9.00
2023-04-16T03:35:10.946Z,9.00
2023-04-16T03:37:38.536Z,8.90
2023-04-16T03:40:07.216Z,8.90
2023-04-16T03:42:35.172Z,8.90
2023-04-16T03:45:03.972Z,8.90
2023-04-16T03:47:32.740Z,8.80
2023-04-16T03:50:03.314Z,8.80
2023-04-16T03:52:31.467Z,8.80
2023-04-16T03:54:59.075Z,8.80
2023-04-16T03:57:28.906Z,8.80
2023-04-16T04:00:02.035Z,8.80
2023-04-16T04:02:42.006Z,8.80
2023-04-16T04:05:16.995Z,8.70
2023-04-16T04:07:46.036Z,8.80
2023-04-16T04:10:15.680Z,8.80
2023-04-16T04:12:44.281Z,8.70
2023-04-16T04:15:12.291Z,8.80
2023-04-16T04:17:39.893Z,8.80
2023-04-16T04:20:07.902Z,8.80
2023-04-16T04:22:37.270Z,8.70
2023-04-16T04:25:05.069Z,8.80
2023-04-16T04:27:33.739Z,8.80
2023-04-16T04:30:01.481Z,8.70
2023-04-16T04:32:29.729Z,8.80
2023-04-16T04:34:57.640Z,8.80
2023-04-16T04:37:25.197Z,8.80
2023-04-16T04:39:52.818Z,8.80
2023-04-16T04:42:21.478Z,8.70
2023-04-16T04:44:49.329Z,8.70
2023-04-16T04:47:17.004Z,8.70
2023-04-16T04:49:44.526Z,8.70
2023-04-16T04:52:12.200Z,8.70
2023-04-16T04:54:41.728Z,8.70
2023-04-16T04:57:09.390Z,8.60
2023-04-16T04:59:37.058Z,8.70
2023-04-16T05:02:04.912Z,8.70
2023-04-16T05:04:32.614Z,8.70
2023-04-16T05:07:00.268Z,8.70
2023-04-16T05:09:27.803Z,8.70
2023-04-16T05:11:55.337Z,8.80
2023-04-16T05:14:23.025Z,8.80
2023-04-16T05:16:50.692Z,8.70
2023-04-16T05:19:18.211Z,8.80
2023-04-16T05:21:45.741Z,8.80
2023-04-16T05:24:14.981Z,8.70
2023-04-16T05:26:42.716Z,8.70
2023-04-16T05:29:10.666Z,8.80
2023-04-16T05:31:38.748Z,8.80
2023-04-16T05:34:06.275Z,8.80
2023-04-16T05:36:33.875Z,8.80
2023-04-16T05:39:01.352Z,8.90
2023-04-16T05:41:28.989Z,8.80
2023-04-16T05:43:56.539Z,8.80
2023-04-16T05:46:24.092Z,8.90
2023-04-16T05:48:51.919Z,8.90
2023-04-16T05:51:20.099Z,8.80
2023-04-16T05:53:47.598Z,8.90
2023-04-16T05:56:15.415Z,8.90
2023-04-16T05:58:42.929Z,8.90
2023-04-16T06:01:11.304Z,8.90
2023-04-16T06:03:39.014Z,8.90
2023-04-16T06:06:08.859Z,8.90
2023-04-16T06:08:36.399Z,9.00
2023-04-16T06:11:04.165Z,9.00
2023-04-16T06:13:31.794Z,9.00
2023-04-16T06:15:59.356Z,9.10
2023-04-16T06:18:26.904Z,9.10
2023-04-16T06:20:54.631Z,9.10
2023-04-16T06:23:23.308Z,9.10
2023-04-16T06:25:51.071Z,9.10
2023-04-16T06:28:18.684Z,9.10
2023-04-16T06:30:47.282Z,9.20
2023-04-16T06:33:14.897Z,9.20
2023-04-16T06:35:42.577Z,9.20
2023-04-16T06:38:10.146Z,9.30
2023-04-16T06:40:37.737Z,9.20
2023-04-16T06:43:05.986Z,9.30
2023-04-16T06:45:33.625Z,9.30
2023-04-16T06:48:01.612Z,9.30
2023-04-16T06:50:29.416Z,9.30
2023-04-16T06:52:57.402Z,9.30
2023-04-16T06:55:24.889Z,9.30
2023-04-16T06:57:52.594Z,9.20
2023-04-16T07:00:20.167Z,9.20
2023-04-16T07:02:48.381Z,9.10
2023-04-16T07:05:16.375Z,9.10
2023-04-16T07:07:43.978Z,9.00
2023-04-16T07:10:11.638Z,8.90
2023-04-16T07:12:39.460Z,8.80
2023-04-16T07:15:07.727Z,8.80
2023-04-16T07:17:35.296Z,8.70
2023-04-16T07:20:02.871Z,8.70
2023-04-16T07:22:30.614Z,8.70
2023-04-16T07:24:58.127Z,8.70
2023-04-16T07:27:25.823Z,8.60
2023-04-16T07:29:54.788Z,8.70
2023-04-16T07:32:22.761Z,8.70
2023-04-16T07:34:50.547Z,8.70
2023-04-16T07:37:18.048Z,8.80
2023-04-16T07:39:45.870Z,8.80
2023-04-16T07:42:14.108Z,8.80
2023-04-16T07:44:41.755Z,8.90
2023-04-16T07:47:09.263Z,9.00
2023-04-16T07:49:36.860Z,9.10
2023-04-16T07:52:04.376Z,9.10
2023-04-16T07:54:32.092Z,9.20
2023-04-16T07:56:59.707Z,9.20
2023-04-16T07:59:27.799Z,9.30
2023-04-16T08:01:55.528Z,9.30
2023-04-16T08:04:25.667Z,9.30
2023-04-16T08:06:54.382Z,9.30
2023-04-16T08:09:23.886Z,9.40
2023-04-16T08:11:51.579Z,9.40
2023-04-16T08:14:19.206Z,9.40
2023-04-16T08:16:47.194Z,9.40
2023-04-16T08:19:14.729Z,9.50
2023-04-16T08:21:42.370Z,9.50
2023-04-16T08:24:10.015Z,9.50
2023-04-16T08:26:37.694Z,9.60
2023-04-16T08:29:05.330Z,9.50
2023-04-16T08:31:33.268Z,9.50
2023-04-16T08:34:01.467Z,9.50
2023-04-16T08:36:29.597Z,9.40
2023-04-16T08:38:57.142Z,9.40
2023-04-16T08:41:26.741Z,9.30
2023-04-16T08:43:56.849Z,10.60
2023-04-16T08:46:26.795Z,9.40
2023-04-16T08:48:57.850Z,9.50
2023-04-16T08:51:29.541Z,9.50
2023-04-16T08:54:03.364Z,9.50
2023-04-16T08:56:36.802Z,9.60
2023-04-16T08:59:07.419Z,9.60
2023-04-16T09:01:40.055Z,9.60
2023-04-16T09:04:09.800Z,9.70
2023-04-16T09:06:39.213Z,9.70
2023-04-16T09:09:09.014Z,9.70
2023-04-16T09:11:39.003Z,9.70
2023-04-16T09:14:09.832Z,9.80
2023-04-16T09:16:37.670Z,9.90
2023-04-16T09:19:05.460Z,10.00
2023-04-16T09:21:33.044Z,10.00
2023-04-16T09:24:01.694Z,10.00
2023-04-16T09:26:29.704Z,10.10
2023-04-16T09:28:57.200Z,10.20
2023-04-16T09:31:24.748Z,10.20
2023-04-16T09:34:07.464Z,10.20
2023-04-16T09:36:36.237Z,10.20
2023-04-16T09:39:04.189Z,10.10
2023-04-16T09:41:36.086Z,10.10
2023-04-16T09:44:05.351Z,10.10
2023-04-16T09:46:45.751Z,9.90
2023-04-16T09:49:18.611Z,9.90
2023-04-16T09:51:49.756Z,9.80
2023-04-16T09:54:17.311Z,9.80
2023-04-16T09:56:46.838Z,9.70
2023-04-16T09:59:21.768Z,9.70
2023-04-16T10:01:53.266Z,9.70
2023-04-16T10:04:26.014Z,9.70
2023-04-16T10:07:05.070Z,9.70
2023-04-16T10:09:40.592Z,9.70
2023-04-16T10:12:08.493Z,9.70
2023-04-16T10:14:36.454Z,9.70
2023-04-16T10:17:06.257Z,9.70
2023-04-16T10:19:35.107Z,9.70
2023-04-16T10:22:03.394Z,9.80
2023-04-16T10:24:33.880Z,9.80
2023-04-16T10:27:01.785Z,10.00
2023-04-16T10:29:30.947Z,10.10
2023-04-16T10:31:59.621Z,10.20
2023-04-16T10:34:28.892Z,10.40
2023-04-16T10:36:56.471Z,10.60
2023-04-16T10:39:27.176Z,10.90
2023-04-16T10:42:09.487Z,10.90
2023-04-16T10:44:37.594Z,11.00
2023-04-16T10:47:11.948Z,11.10
2023-04-16T10:49:40.799Z,11.20
2023-04-16T10:52:10.060Z,11.20
2023-04-16T10:54:37.996Z,11.20
2023-04-16T10:57:07.568Z,11.30
2023-04-16T10:59:36.984Z,11.30
2023-04-16T11:02:09.852Z,11.20
2023-04-16T11:04:39.581Z,11.30
2023-04-16T11:07:14.686Z,11.30
2023-04-16T11:09:54.325Z,11.30
2023-04-16T11:12:23.466Z,11.40
2023-04-16T11:14:54.490Z,11.60
2023-04-16T11:17:22.476Z,11.60
2023-04-16T11:19:50.932Z,11.60
2023-04-16T11:22:21.334Z,11.60
2023-04-16T11:24:55.432Z,11.60
2023-04-16T11:27:26.416Z,11.70
2023-04-16T11:30:02.393Z,11.70
2023-04-16T11:32:38.193Z,11.70
2023-04-16T11:35:15.838Z,11.70
2023-04-16T11:37:43.612Z,11.60
2023-04-16T11:40:11.491Z,11.50
2023-04-16T11:42:41.398Z,11.60
2023-04-16T11:45:11.047Z,11.60
2023-04-16T11:47:55.493Z,11.70
2023-04-16T11:50:28.295Z,11.70
2023-04-16T11:52:57.703Z,11.70
2023-04-16T11:55:25.492Z,11.90
2023-04-16T11:57:53.085Z,12.00
2023-04-16T12:00:23.968Z,12.20
2023-04-16T12:02:54.947Z,12.20
2023-04-16T12:05:38.680Z,12.30
2023-04-16T12:08:08.212Z,10.40
2023-04-16T12:10:55.998Z,12.20
2023-04-16T12:13:23.571Z,12.20
2023-04-16T12:15:52.699Z,12.10
2023-04-16T12:18:23.014Z,12.00
2023-04-16T12:20:53.585Z,12.00
2023-04-16T12:23:25.132Z,12.10
2023-04-16T12:25:53.259Z,12.20
2023-04-16T12:28:47.238Z,12.30
2023-04-16T12:31:15.802Z,12.30
2023-04-16T12:33:43.438Z,12.30
2023-04-16T12:36:20.890Z,12.30
2023-04-16T12:38:48.491Z,12.30
2023-04-16T12:41:15.952Z,12.30
2023-04-16T12:43:43.522Z,12.30
2023-04-16T12:46:11.115Z,12.40
2023-04-16T12:48:38.648Z,13.00
2023-04-16T12:51:06.546Z,13.00
2023-04-16T12:53:34.619Z,13.10
2023-04-16T12:56:02.327Z,13.20
2023-04-16T12:58:29.820Z,13.30
2023-04-16T13:00:57.519Z,13.30
2023-04-16T13:03:25.233Z,13.30
2023-04-16T13:05:52.926Z,13.40
2023-04-16T13:08:20.687Z,13.60
2023-04-16T13:10:48.258Z,14.70
2023-04-16T13:13:16.546Z,13.70
2023-04-16T13:15:44.154Z,13.60
2023-04-16T13:18:11.672Z,13.40
2023-04-16T13:20:39.353Z,13.00
2023-04-16T13:23:07.413Z,12.80
2023-04-16T13:25:35.443Z,12.70
2023-04-16T13:28:03.055Z,12.50
2023-04-16T13:30:31.738Z,12.40
2023-04-16T13:32:59.539Z,12.40
2023-04-16T13:35:27.477Z,12.40
2023-04-16T13:37:55.264Z,12.50
2023-04-16T13:40:22.836Z,12.60
2023-04-16T13:42:50.431Z,12.60
2023-04-16T13:45:19.038Z,12.60
2023-04-16T13:47:46.931Z,12.60
2023-04-16T13:50:14.529Z,12.70
2023-04-16T13:52:42.080Z,12.80
2023-04-16T13:55:09.960Z,12.80
2023-04-16T13:57:37.543Z,12.90
2023-04-16T14:00:05.609Z,12.90
2023-04-16T14:02:33.313Z,12.90
2023-04-16T14:05:01.082Z,13.00
2023-04-16T14:07:29.227Z,13.00
2023-04-16T14:09:56.716Z,13.10
2023-04-16T14:12:24.406Z,13.10
2023-04-16T14:14:51.919Z,13.00
2023-04-16T14:17:19.560Z,13.00
2023-04-16T14:19:47.196Z,13.10
2023-04-16T14:22:17.757Z,13.10
2023-04-16T14:24:46.499Z,13.00
2023-04-16T14:27:14.169Z,13.00
2023-04-16T14:29:41.712Z,13.10
2023-04-16T14:32:09.317Z,13.10
2023-04-16T14:34:37.063Z,13.10
2023-04-16T14:37:05.678Z,13.10
2023-04-16T14:39:33.173Z,13.00
2023-04-16T14:42:00.745Z,13.00
2023-04-16T14:44:28.235Z,13.00
2023-04-16T14:46:55.878Z,13.00
2023-04-16T14:49:23.459Z,13.00
2023-04-16T14:51:52.328Z,13.00
2023-04-16T14:54:20.547Z,13.00
2023-04-16T14:56:48.193Z,13.00
2023-04-16T14:59:15.771Z,12.90
2023-04-16T15:01:43.437Z,12.90
2023-04-16T15:04:11.358Z,12.80
2023-04-16T15:06:39.284Z,12.70
2023-04-16T15:09:08.160Z,12.60
2023-04-16T15:11:35.874Z,12.60
2023-04-16T15:14:03.377Z,12.60
2023-04-16T15:16:31.036Z,12.70
2023-04-16T15:18:59.172Z,12.70
2023-04-16T15:21:27.967Z,12.70
2023-04-16T15:23:55.472Z,12.80
2023-04-16T15:26:23.193Z,12.90
2023-04-16T15:28:50.663Z,13.00
2023-04-16T15:31:20.765Z,13.00
2023-04-16T15:33:49.148Z,13.00
2023-04-16T15:36:16.645Z,13.00
2023-04-16T15:38:44.122Z,13.10
2023-04-16T15:41:11.796Z,13.10
2023-04-16T15:43:39.339Z,13.20
2023-04-16T15:46:08.744Z,13.30
2023-04-16T15:48:36.417Z,13.30
2023-04-16T15:51:04.118Z,13.30
2023-04-16T15:53:31.689Z,13.30
2023-04-16T15:55:59.952Z,13.40
2023-04-16T15:58:27.551Z,13.40
2023-04-16T16:00:55.101Z,13.40
2023-04-16T16:03:22.787Z,13.40
2023-04-16T16:05:50.669Z,13.50
2023-04-16T16:08:18.528Z,13.50
2023-04-16T16:10:46.780Z,13.50
2023-04-16T16:13:18.026Z,13.50
2023-04-16T16:15:45.633Z,13.50
2023-04-16T16:18:13.180Z,13.40
2023-04-16T16:20:41.032Z,13.30
2023-04-16T16:23:08.624Z,13.20
2023-04-16T16:25:36.278Z,13.20
2023-04-16T16:28:06.654Z,13.10
2023-04-16T16:30:34.507Z,12.90
2023-04-16T16:33:02.164Z,13.00
2023-04-16T16:35:29.832Z,12.90
2023-04-16T16:37:58.658Z,12.90
2023-04-16T16:40:26.173Z,12.90
2023-04-16T16:42:53.732Z,12.80
2023-04-16T16:45:21.455Z,12.80
2023-04-16T16:47:49.124Z,12.80
2023-04-16T16:50:16.939Z,12.80
2023-04-16T16:52:44.849Z,12.70
2023-04-16T16:55:12.402Z,12.80
2023-04-16T16:57:39.991Z,12.70
2023-04-16T17:00:14.881Z,12.70
2023-04-16T17:02:43.082Z,12.70
2023-04-16T17:05:11.005Z,12.70
2023-04-16T17:07:39.119Z,12.70
2023-04-16T17:10:07.378Z,12.70
2023-04-16T17:12:35.713Z,12.60
2023-04-16T17:15:03.830Z,12.60
2023-04-16T17:17:32.581Z,12.60
2023-04-16T17:20:01.152Z,12.60
2023-04-16T17:22:28.801Z,12.70
2023-04-16T17:24:57.139Z,12.70
2023-04-16T17:27:24.731Z,12.60
2023-04-16T17:29:53.191Z,12.60
2023-04-16T17:32:20.923Z,12.60
2023-04-16T17:34:48.489Z,12.60
2023-04-16T17:37:16.036Z,12.50
2023-04-16T17:39:43.608Z,12.40
2023-04-16T17:42:11.142Z,12.40
2023-04-16T17:44:38.646Z,12.40
2023-04-16T17:47:06.309Z,12.40
2023-04-16T17:49:33.812Z,12.30
2023-04-16T17:52:01.331Z,12.30
2023-04-16T17:54:28.855Z,12.20
2023-04-16T17:56:57.631Z,12.20
2023-04-16T17:59:25.367Z,12.20
2023-04-16T18:01:53.031Z,12.20
2023-04-16T18:04:20.739Z,12.10
2023-04-16T18:06:48.560Z,12.20
2023-04-16T18:09:16.182Z,12.10
2023-04-16T18:11:43.960Z,12.10
2023-04-16T18:14:14.087Z,12.10
2023-04-16T18:16:42.086Z,12.10
2023-04-16T18:19:09.624Z,12.10
2023-04-16T18:21:37.195Z,12.10
2023-04-16T18:24:05.381Z,12.10
2023-04-16T18:26:35.692Z,12.10
2023-04-16T18:29:04.151Z,12.00
2023-04-16T18:31:32.000Z,12.00
2023-04-16T18:33:59.756Z,12.00
2023-04-16T18:36:27.559Z,12.00
2023-04-16T18:39:02.142Z,11.90
2023-04-16T18:41:31.151Z,11.90
2023-04-16T18:43:58.760Z,11.90
2023-04-16T18:46:27.541Z,11.90
2023-04-16T18:48:55.505Z,11.90
2023-04-16T18:51:23.327Z,11.80
2023-04-16T18:53:51.322Z,11.80
2023-04-16T18:56:18.975Z,11.80
2023-04-16T18:58:47.833Z,11.80
2023-04-16T19:01:16.696Z,11.80
2023-04-16T19:03:44.421Z,11.80
2023-04-16T19:06:12.078Z,11.80
2023-04-16T19:08:39.694Z,11.70
2023-04-16T19:11:07.501Z,11.70
2023-04-16T19:13:35.390Z,11.70
2023-04-16T19:16:04.939Z,11.70
2023-04-16T19:18:32.768Z,11.70
2023-04-16T19:21:01.401Z,11.70
2023-04-16T19:23:29.420Z,11.70
2023-04-16T19:25:57.324Z,11.70
2023-04-16T19:28:25.484Z,11.70
2023-04-16T19:30:53.858Z,11.70
2023-04-16T19:33:21.542Z,11.70
2023-04-16T19:35:49.266Z,11.70
2023-04-16T19:38:16.847Z,11.70
2023-04-16T19:40:46.670Z,11.70
2023-04-16T19:43:15.006Z,11.70
2023-04-16T19:45:46.856Z,11.70
2023-04-16T19:48:14.977Z,11.70
2023-04-16T19:50:43.005Z,11.70
2023-04-16T19:53:11.649Z,11.70
2023-04-16T19:55:40.285Z,11.70
2023-04-16T19:58:08.950Z,11.70
2023-04-16T20:00:38.070Z,11.70
2023-04-16T20:03:06.531Z,11.70
2023-04-16T20:05:34.224Z,11.70
2023-04-16T20:08:01.839Z,11.70
2023-04-16T20:10:31.534Z,11.70
2023-04-16T20:12:59.480Z,11.70
2023-04-16T20:15:27.383Z,11.60
2023-04-16T20:17:56.293Z,11.60
2023-04-16T20:20:24.299Z,11.60
2023-04-16T20:22:51.974Z,11.60
2023-04-16T20:25:19.774Z,11.60
2023-04-16T20:27:47.888Z,11.60
2023-04-16T20:30:15.686Z,11.60
2023-04-16T20:32:43.544Z,11.60
2023-04-16T20:35:11.643Z,11.60
2023-04-16T20:37:42.009Z,11.60
2023-04-16T20:40:10.740Z,11.60
2023-04-16T20:42:38.432Z,11.60
2023-04-16T20:45:07.261Z,11.60
2023-04-16T20:47:35.015Z,11.60
2023-04-16T20:50:03.734Z,11.60
2023-04-16T20:52:31.308Z,11.60
2023-04-16T20:54:58.811Z,11.60
2023-04-16T20:57:32.064Z,11.50
2023-04-16T20:59:59.776Z,11.50
2023-04-16T21:02:28.377Z,11.60
2023-04-16T21:04:56.208Z,11.60
2023-04-16T21:07:23.769Z,11.50
2023-04-16T21:09:51.257Z,11.60
2023-04-16T21:12:19.158Z,11.60
2023-04-16T21:14:46.727Z,11.60
2023-04-16T21:17:14.328Z,11.50
2023-04-16T21:19:41.841Z,11.60
2023-04-16T21:22:09.535Z,11.50
2023-04-16T21:24:37.068Z,11.60
2023-04-16T21:27:04.588Z,11.60
2023-04-16T21:29:32.772Z,11.50
2023-04-16T21:32:00.328Z,11.50
2023-04-16T21:34:27.897Z,11.50
2023-04-16T21:36:55.495Z,11.50
2023-04-16T21:39:24.454Z,11.50
2023-04-16T21:41:51.972Z,11.50
2023-04-16T21:44:21.119Z,11.50
2023-04-16T21:46:48.679Z,11.50
2023-04-16T21:49:16.379Z,11.40
2023-04-16T21:51:46.055Z,11.40
2023-04-16T21:54:13.674Z,11.40
2023-04-16T21:56:41.180Z,11.40
2023-04-16T21:59:08.832Z,11.40
2023-04-16T22:01:36.671Z,11.40
2023-04-16T22:04:05.044Z,11.40
2023-04-16T22:06:32.627Z,11.40
2023-04-16T22:09:00.125Z,11.40
2023-04-16T22:11:27.748Z,11.40
2023-04-16T22:13:57.812Z,11.40
2023-04-16T22:16:25.808Z,11.40
2023-04-16T22:18:54.973Z,11.30
2023-04-16T22:21:22.657Z,11.30
2023-04-16T22:23:50.226Z,11.30
2023-04-16T22:26:17.784Z,11.30
2023-04-16T22:28:45.507Z,11.30
2023-04-16T22:31:13.093Z,11.30
2023-04-16T22:33:40.786Z,11.30
2023-04-16T22:36:08.601Z,11.30
2023-04-16T22:38:36.988Z,11.30
2023-04-16T22:41:04.762Z,11.30
2023-04-16T22:43:32.306Z,11.30
2023-04-16T22:46:07.032Z,11.30
2023-04-16T22:48:36.543Z,11.30
2023-04-16T22:51:05.621Z,11.30
2023-04-16T22:53:33.242Z,11.30
2023-04-16T22:56:00.839Z,11.30
2023-04-16T22:58:28.351Z,11.30
2023-04-16T23:00:59.413Z,11.30
2023-04-16T23:03:27.516Z,11.30
2023-04-16T23:05:55.132Z,9.90
2023-04-16T23:08:22.649Z,11.30
2023-04-16T23:10:50.431Z,11.30
2023-04-16T23:13:17.992Z,11.30
2023-04-16T23:15:47.325Z,11.30
2023-04-16T23:18:15.393Z,11.20
2023-04-16T23:20:43.064Z,11.30
2023-04-16T23:23:10.676Z,11.30
2023-04-16T23:25:40.630Z,11.30
2023-04-16T23:28:08.172Z,11.30
2023-04-16T23:30:35.791Z,11.30
2023-04-16T23:33:04.507Z,11.30
2023-04-16T23:35:32.058Z,11.30
2023-04-16T23:37:59.600Z,11.30
2023-04-16T23:40:27.130Z,11.30
2023-04-16T23:42:54.634Z,11.30
2023-04-16T23:45:22.193Z,11.30
2023-04-16T23:47:50.841Z,11.30
2023-04-16T23:50:18.374Z,11.30
2023-04-16T23:52:45.940Z,11.30
2023-04-16T23:55:15.438Z,11.30
2023-04-16T23:57:42.943Z,11.30
